Ashley, Indiana
Current Conditions -  °F | °C
As of 9:35 AM on Friday 31 Oct 2014 (Local Time) from KANQ Reporting Station
Overcast Overcast  
Wind Chill: 34°   Ceiling: 1200
Heat Index: 39°   Visibility: NA
Dew Point: 37°   Wind: 8mph
Humidity: 93%   Direction: 340°NNW
Pressure: 29.93"   Gusts: NA
Location:  41.53°N, 85.07°W
Report Text: KANQ 311335Z AUTO 34007KT BKN012 OVC021 04/03 A2993 RMK
Loading
Personal Weather Stations






























Interactive Weather Map
Tropical Storm Tracking
New forecast layout! Learn more

10-Day Weather Forecast

Advertisements
Track Severe Weather on mobile